createdAt,value
2022-09-10T00:00:09.548Z,15
2022-09-10T00:03:09.895Z,15
2022-09-10T00:06:09.453Z,15.1
2022-09-10T00:09:09.496Z,15.1
2022-09-10T00:12:09.459Z,15.1
2022-09-10T00:15:09.434Z,15.1
2022-09-10T00:18:09.445Z,15.1
2022-09-10T00:21:09.483Z,15.1
2022-09-10T00:24:09.453Z,15.1
2022-09-10T00:27:09.529Z,15.1
2022-09-10T00:30:09.490Z,15.1
2022-09-10T00:33:09.497Z,15
2022-09-10T00:36:09.478Z,15.1
2022-09-10T00:39:09.454Z,15.1
2022-09-10T00:42:09.468Z,15.1
2022-09-10T00:45:09.525Z,15
2022-09-10T00:48:09.479Z,15.1
2022-09-10T00:51:09.557Z,15.1
2022-09-10T00:54:09.517Z,15.1
2022-09-10T00:57:09.495Z,15.1
2022-09-10T01:00:09.492Z,15
2022-09-10T01:03:09.469Z,14.9
2022-09-10T01:06:09.428Z,14.8
2022-09-10T01:09:09.561Z,14.7
2022-09-10T01:12:11.087Z,14.6
2022-09-10T01:15:09.485Z,14.5
2022-09-10T01:18:09.459Z,14.4
2022-09-10T01:21:09.484Z,14.4
2022-09-10T01:24:09.479Z,14.4
2022-09-10T01:27:09.470Z,14.4
2022-09-10T01:30:09.465Z,14.4
2022-09-10T01:33:09.381Z,14.4
2022-09-10T01:36:09.455Z,14.5
2022-09-10T01:39:09.425Z,14.4
2022-09-10T01:42:09.457Z,14.4
2022-09-10T01:45:09.456Z,14.6
2022-09-10T01:48:09.500Z,14.7
2022-09-10T01:51:09.538Z,14.8
2022-09-10T01:54:09.465Z,14.8
2022-09-10T01:57:09.529Z,14.9
2022-09-10T02:00:09.488Z,14.9
2022-09-10T02:03:09.501Z,14.9
2022-09-10T02:06:09.434Z,14.9
2022-09-10T02:09:09.511Z,14.9
2022-09-10T02:12:09.526Z,14.8
2022-09-10T02:15:09.528Z,14.7
2022-09-10T02:18:09.533Z,14.7
2022-09-10T02:21:09.479Z,14.7
2022-09-10T02:24:09.505Z,14.7
2022-09-10T02:27:09.460Z,14.7
2022-09-10T02:30:09.488Z,14.7
2022-09-10T02:33:09.401Z,14.7
2022-09-10T02:36:09.517Z,14.7
2022-09-10T02:39:09.450Z,14.7
2022-09-10T02:42:09.439Z,14.7
2022-09-10T02:45:09.511Z,14.6
2022-09-10T02:48:09.495Z,14.6
2022-09-10T02:51:09.461Z,14.6
2022-09-10T02:54:09.490Z,14.6
2022-09-10T02:57:09.449Z,14.5
2022-09-10T03:00:09.512Z,14.4
2022-09-10T03:03:12.143Z,14.4
2022-09-10T03:06:09.510Z,14.3
2022-09-10T03:09:09.438Z,14.2
2022-09-10T03:12:09.444Z,14
2022-09-10T03:15:09.498Z,13.9
2022-09-10T03:18:09.519Z,13.8
2022-09-10T03:21:09.470Z,13.6
2022-09-10T03:24:15.731Z,13.5
2022-09-10T03:27:09.465Z,13.4
2022-09-10T03:30:09.477Z,13.3
2022-09-10T03:33:09.489Z,13.2
2022-09-10T03:36:09.486Z,13.1
2022-09-10T03:39:09.499Z,13.1
2022-09-10T03:42:09.470Z,13.1
2022-09-10T03:45:09.508Z,13.1
2022-09-10T03:48:09.468Z,13.2
2022-09-10T03:51:09.452Z,13.2
2022-09-10T03:54:09.435Z,13.3
2022-09-10T03:57:09.466Z,13.4
2022-09-10T04:00:09.525Z,13.4
2022-09-10T04:03:09.449Z,13.6
2022-09-10T04:06:09.446Z,13.6
2022-09-10T04:09:09.462Z,13.8
2022-09-10T04:12:09.503Z,13.9
2022-09-10T04:15:09.477Z,13.9
2022-09-10T04:18:09.529Z,14
2022-09-10T04:21:09.495Z,13.9
2022-09-10T04:24:09.602Z,13.9
2022-09-10T04:27:09.515Z,13.8
2022-09-10T04:30:09.487Z,13.6
2022-09-10T04:33:09.537Z,13.5
2022-09-10T04:36:09.478Z,13.5
2022-09-10T04:39:09.511Z,13.4
2022-09-10T04:42:09.441Z,13.3
2022-09-10T04:45:09.482Z,13.3
2022-09-10T04:48:15.791Z,13.3
2022-09-10T04:51:26.217Z,13.3
2022-09-10T04:54:09.504Z,13.2
2022-09-10T04:57:09.461Z,13.1
2022-09-10T05:00:09.518Z,13.2
2022-09-10T05:03:09.512Z,13.2
2022-09-10T05:06:09.525Z,13.3
2022-09-10T05:09:09.525Z,13.3
2022-09-10T05:12:09.545Z,13.4
2022-09-10T05:15:09.548Z,13.7
2022-09-10T05:18:09.633Z,13.9
2022-09-10T05:21:09.510Z,14.1
2022-09-10T05:24:09.524Z,14.3
2022-09-10T05:27:09.473Z,14.4
2022-09-10T05:30:09.724Z,14.7
2022-09-10T05:33:09.458Z,14.8
2022-09-10T05:36:09.570Z,15.1
2022-09-10T05:39:09.577Z,15.4
2022-09-10T05:42:09.550Z,16
2022-09-10T05:45:09.486Z,16.3
2022-09-10T05:48:09.501Z,16.2
2022-09-10T05:51:09.490Z,16
2022-09-10T05:54:09.567Z,15.8
2022-09-10T05:57:09.534Z,15.7
2022-09-10T06:00:09.573Z,15.6
2022-09-10T06:03:10.480Z,15.6
2022-09-10T06:06:09.506Z,15.5
2022-09-10T06:09:09.524Z,15.6
2022-09-10T06:12:09.572Z,15.9
2022-09-10T06:15:09.565Z,16
2022-09-10T06:18:09.551Z,16.1
2022-09-10T06:21:09.621Z,16.1
2022-09-10T06:24:09.590Z,16.1
2022-09-10T06:27:09.843Z,16.1
2022-09-10T06:30:09.527Z,16.1
2022-09-10T06:33:09.526Z,16.1
2022-09-10T06:36:09.529Z,16.1
2022-09-10T06:39:09.610Z,16.1
2022-09-10T06:42:09.557Z,16.2
2022-09-10T06:45:09.614Z,16.3
2022-09-10T06:51:09.555Z,16.6
2022-09-10T06:54:09.583Z,16.6
2022-09-10T06:57:09.512Z,16.7
2022-09-10T07:00:09.570Z,16.7
2022-09-10T07:03:09.551Z,16.6
2022-09-10T07:06:09.548Z,16.6
2022-09-10T07:09:09.509Z,16.5
2022-09-10T07:12:09.521Z,16.5
2022-09-10T07:15:09.500Z,16.6
2022-09-10T07:18:09.565Z,16.7
2022-09-10T07:21:09.537Z,16.9
2022-09-10T07:24:09.494Z,17.1
2022-09-10T07:27:09.496Z,17.4
2022-09-10T07:30:09.548Z,17.5
2022-09-10T07:33:09.476Z,17.6
2022-09-10T07:36:09.502Z,17.6
2022-09-10T07:39:09.505Z,17.8
2022-09-10T07:42:09.501Z,17.9
2022-09-10T07:45:09.510Z,18.1
2022-09-10T07:48:09.575Z,18.3
2022-09-10T07:51:09.509Z,18.8
2022-09-10T07:54:09.545Z,19.3
2022-09-10T07:57:09.574Z,19.8
2022-09-10T08:00:09.605Z,19.9
2022-09-10T08:03:09.548Z,20
2022-09-10T08:06:09.512Z,20
2022-09-10T08:09:09.581Z,20.7
2022-09-10T08:12:09.548Z,22.3
2022-09-10T08:15:09.512Z,23.6
2022-09-10T08:18:09.563Z,24.2
2022-09-10T08:21:09.559Z,24.4
2022-09-10T08:24:09.571Z,24
2022-09-10T08:27:09.567Z,23.4
2022-09-10T08:30:09.663Z,22.4
2022-09-10T08:33:09.526Z,21.7
2022-09-10T08:36:09.500Z,20.8
2022-09-10T08:39:17.131Z,20.1
2022-09-10T08:42:09.557Z,19.6
2022-09-10T08:45:09.535Z,19.4
2022-09-10T08:48:09.524Z,19.4
2022-09-10T08:51:09.556Z,19.4
2022-09-10T08:54:09.534Z,19.7
2022-09-10T08:57:09.475Z,19.7
2022-09-10T09:00:09.534Z,19.8
2022-09-10T09:03:09.733Z,19.8
2022-09-10T09:06:09.536Z,19.9
2022-09-10T09:09:12.331Z,20.2
2022-09-10T09:12:09.554Z,20.3
2022-09-10T09:15:14.757Z,20.3
2022-09-10T09:18:09.524Z,20.4
2022-09-10T09:21:09.475Z,20.4
2022-09-10T09:24:22.820Z,20.4
2022-09-10T09:27:09.600Z,20.6
2022-09-10T09:30:09.601Z,20.5
2022-09-10T09:33:09.446Z,20.3
2022-09-10T09:36:09.536Z,20.2
2022-09-10T09:39:09.509Z,21.4
2022-09-10T09:42:09.541Z,22.1
2022-09-10T09:45:09.546Z,22.9
2022-09-10T09:48:09.496Z,23.3
2022-09-10T09:51:09.503Z,23.8
2022-09-10T09:57:09.542Z,24.9
2022-09-10T10:00:09.564Z,26
2022-09-10T10:03:09.561Z,24.9
2022-09-10T10:06:09.590Z,23.3
2022-09-10T10:09:09.478Z,21.8
2022-09-10T10:12:09.529Z,21.4
2022-09-10T10:15:09.498Z,22.2
2022-09-10T10:18:09.632Z,22.1
2022-09-10T10:21:09.563Z,22.7
2022-09-10T10:24:09.601Z,24.1
2022-09-10T10:27:09.598Z,24.3
2022-09-10T10:30:09.631Z,23.3
2022-09-10T10:33:09.469Z,22.4
2022-09-10T10:36:09.623Z,21.6
2022-09-10T10:39:09.631Z,21.1
2022-09-10T10:42:09.515Z,21.2
2022-09-10T10:45:09.568Z,21.4
2022-09-10T10:48:09.598Z,21.8
2022-09-10T10:51:09.593Z,22.9
2022-09-10T10:54:09.492Z,23.6
2022-09-10T10:57:09.528Z,23.6
2022-09-10T11:00:09.610Z,23.8
2022-09-10T11:03:09.576Z,23.9
2022-09-10T11:06:09.566Z,24.3
2022-09-10T11:09:09.626Z,24.3
2022-09-10T11:12:09.630Z,24.4
2022-09-10T11:15:09.559Z,24.7
2022-09-10T11:18:09.500Z,24.8
2022-09-10T11:21:09.539Z,24.6
2022-09-10T11:24:11.213Z,23.5
2022-09-10T11:27:09.570Z,23.1
2022-09-10T11:30:09.690Z,22.7
2022-09-10T11:33:09.602Z,22.5
2022-09-10T11:36:09.550Z,22.2
2022-09-10T11:39:09.519Z,22.2
2022-09-10T11:42:09.621Z,22.4
2022-09-10T11:45:09.536Z,23.4
2022-09-10T11:48:09.565Z,24.9
2022-09-10T11:51:09.472Z,26.2
2022-09-10T11:54:09.552Z,25.8
2022-09-10T11:57:09.553Z,24.4
2022-09-10T12:00:09.740Z,23.1
2022-09-10T12:03:09.559Z,22.4
2022-09-10T12:06:09.492Z,21.9
2022-09-10T12:09:09.521Z,21.4
2022-09-10T12:12:09.508Z,21.1
2022-09-10T12:15:09.590Z,21
2022-09-10T12:18:09.498Z,21
2022-09-10T12:21:09.576Z,20.9
2022-09-10T12:24:09.529Z,20.8
2022-09-10T12:27:09.537Z,20.8
2022-09-10T12:30:09.643Z,20.9
2022-09-10T12:33:09.639Z,20.9
2022-09-10T12:36:09.601Z,20.8
2022-09-10T12:39:09.559Z,20.6
2022-09-10T12:42:09.559Z,20.6
2022-09-10T12:45:09.560Z,20.5
2022-09-10T12:48:09.671Z,20.5
2022-09-10T12:51:09.626Z,20.3
2022-09-10T12:54:09.497Z,20.3
2022-09-10T12:57:09.551Z,20.3
2022-09-10T13:00:09.708Z,21.1
2022-09-10T13:03:09.550Z,21.4
2022-09-10T13:06:09.557Z,21.2
2022-09-10T13:09:09.526Z,21.2
2022-09-10T13:12:09.572Z,21.1
2022-09-10T13:15:09.557Z,21
2022-09-10T13:18:09.555Z,20.9
2022-09-10T13:21:09.499Z,20.8
2022-09-10T13:24:09.555Z,20.8
2022-09-10T13:27:09.483Z,20.7
2022-09-10T13:30:09.662Z,20.8
2022-09-10T13:33:09.583Z,21.7
2022-09-10T13:36:09.585Z,22.3
2022-09-10T13:39:12.124Z,22.2
2022-09-10T13:42:09.582Z,22.3
2022-09-10T13:45:09.567Z,22.5
2022-09-10T13:48:09.529Z,22.5
2022-09-10T13:51:09.509Z,22.3
2022-09-10T13:54:09.585Z,22.2
2022-09-10T13:57:09.469Z,22.2
2022-09-10T14:00:09.794Z,22.1
2022-09-10T14:03:09.532Z,22
2022-09-10T14:06:09.628Z,22.2
2022-09-10T14:09:09.520Z,22.1
2022-09-10T14:12:09.532Z,22
2022-09-10T14:15:09.578Z,22.1
2022-09-10T14:18:09.586Z,21.9
2022-09-10T14:21:09.508Z,21.8
2022-09-10T14:24:09.598Z,21.4
2022-09-10T14:27:09.679Z,21.1
2022-09-10T14:30:09.573Z,20.9
2022-09-10T14:33:09.615Z,21.1
2022-09-10T14:36:09.588Z,21
2022-09-10T14:39:09.544Z,21.2
2022-09-10T14:42:09.499Z,21.4
2022-09-10T14:45:09.496Z,21.2
2022-09-10T14:48:09.773Z,21.1
2022-09-10T14:51:09.542Z,20.9
2022-09-10T14:54:09.546Z,20.8
2022-09-10T14:57:09.521Z,20.7
2022-09-10T15:00:09.801Z,20.6
2022-09-10T15:03:09.482Z,20.4
2022-09-10T15:06:09.514Z,20.4
2022-09-10T15:09:09.504Z,20.4
2022-09-10T15:12:09.537Z,20.3
2022-09-10T15:15:09.519Z,20.4
2022-09-10T15:18:09.505Z,20.7
2022-09-10T15:21:09.501Z,20.8
2022-09-10T15:24:09.520Z,21.3
2022-09-10T15:27:09.531Z,21.4
2022-09-10T15:30:09.549Z,21.3
2022-09-10T15:33:09.524Z,21.4
2022-09-10T15:36:09.491Z,21.2
2022-09-10T15:39:09.582Z,21.3
2022-09-10T15:42:09.535Z,21.4
2022-09-10T15:45:09.493Z,21.6
2022-09-10T15:48:09.514Z,21.7
2022-09-10T15:51:09.531Z,21.8
2022-09-10T15:54:14.213Z,21.7
2022-09-10T15:57:09.512Z,22
2022-09-10T16:00:09.613Z,22.1
2022-09-10T16:03:09.786Z,21.8
2022-09-10T16:06:09.532Z,21.6
2022-09-10T16:09:09.726Z,21.2
2022-09-10T16:12:09.572Z,21.1
2022-09-10T16:15:09.433Z,20.9
2022-09-10T16:18:09.532Z,20.8
2022-09-10T16:21:09.521Z,20.8
2022-09-10T16:24:09.517Z,20.8
2022-09-10T16:27:09.522Z,20.6
2022-09-10T16:30:09.602Z,20.8
2022-09-10T16:33:09.483Z,20.8
2022-09-10T16:36:09.695Z,20.9
2022-09-10T16:39:09.546Z,21
2022-09-10T16:42:09.508Z,20.9
2022-09-10T16:45:09.516Z,20.6
2022-09-10T16:48:13.382Z,20.5
2022-09-10T16:51:09.455Z,20.3
2022-09-10T16:54:09.491Z,20.1
2022-09-10T16:57:09.500Z,20.1
2022-09-10T17:00:09.506Z,19.9
2022-09-10T17:03:09.574Z,19.8
2022-09-10T17:06:09.582Z,19.5
2022-09-10T17:09:09.493Z,19.4
2022-09-10T17:12:09.547Z,19.2
2022-09-10T17:15:09.520Z,19
2022-09-10T17:18:09.558Z,18.9
2022-09-10T17:21:09.513Z,18.9
2022-09-10T17:24:09.578Z,18.8
2022-09-10T17:27:09.567Z,18.8
2022-09-10T17:30:09.538Z,18.7
2022-09-10T17:33:09.496Z,18.7
2022-09-10T17:36:09.513Z,18.6
2022-09-10T17:39:09.522Z,18.4
2022-09-10T17:42:09.573Z,18.4
2022-09-10T17:45:09.596Z,18.3
2022-09-10T17:48:09.515Z,18.2
2022-09-10T17:51:09.457Z,18.1
2022-09-10T17:54:09.531Z,18.1
2022-09-10T17:57:09.432Z,17.9
2022-09-10T18:00:09.506Z,17.9
2022-09-10T18:03:09.699Z,17.8
2022-09-10T18:06:09.456Z,17.8
2022-09-10T18:09:09.756Z,17.7
2022-09-10T18:12:09.437Z,17.6
2022-09-10T18:15:09.439Z,17.4
2022-09-10T18:18:09.491Z,17.4
2022-09-10T18:21:09.471Z,17.3
2022-09-10T18:24:09.477Z,17.2
2022-09-10T18:27:09.444Z,17.2
2022-09-10T18:30:09.583Z,17.1
2022-09-10T18:33:09.536Z,17.1
2022-09-10T18:36:09.438Z,16.9
2022-09-10T18:39:09.509Z,16.9
2022-09-10T18:42:09.464Z,16.8
2022-09-10T18:45:09.474Z,16.7
2022-09-10T18:48:09.505Z,16.6
2022-09-10T18:51:09.456Z,16.5
2022-09-10T18:54:09.507Z,16.4
2022-09-10T18:57:09.505Z,16.4
2022-09-10T19:00:09.482Z,16.3
2022-09-10T19:03:09.491Z,16.3
2022-09-10T19:06:09.465Z,16.3
2022-09-10T19:09:09.502Z,16.3
2022-09-10T19:12:09.531Z,16.3
2022-09-10T19:15:09.558Z,16.3
2022-09-10T19:18:15.409Z,16.4
2022-09-10T19:21:09.546Z,16.5
2022-09-10T19:24:09.501Z,16.6
2022-09-10T19:27:09.478Z,16.6
2022-09-10T19:30:09.505Z,16.7
2022-09-10T19:33:09.427Z,16.7
2022-09-10T19:36:09.473Z,16.6
2022-09-10T19:39:09.492Z,16.7
2022-09-10T19:42:09.497Z,16.7
2022-09-10T19:45:14.722Z,16.6
2022-09-10T19:48:09.467Z,16.6
2022-09-10T19:51:09.443Z,16.6
2022-09-10T19:54:09.450Z,16.6
2022-09-10T19:57:09.682Z,16.6
2022-09-10T20:00:17.180Z,16.6
2022-09-10T20:03:09.459Z,16.5
2022-09-10T20:06:09.475Z,16.4
2022-09-10T20:09:09.458Z,16.4
2022-09-10T20:12:09.442Z,16.4
2022-09-10T20:15:09.435Z,16.4
2022-09-10T20:18:09.493Z,16.4
2022-09-10T20:21:09.519Z,16.3
2022-09-10T20:24:09.478Z,16.4
2022-09-10T20:27:09.435Z,16.3
2022-09-10T20:30:09.571Z,16.4
2022-09-10T20:33:09.459Z,16.4
2022-09-10T20:36:09.532Z,16.4
2022-09-10T20:39:09.466Z,16.4
2022-09-10T20:42:09.470Z,16.4
2022-09-10T20:45:09.602Z,16.4
2022-09-10T20:48:09.689Z,16.4
2022-09-10T20:51:09.483Z,16.4
2022-09-10T20:54:09.471Z,16.4
2022-09-10T20:57:09.427Z,16.4
2022-09-10T21:00:09.565Z,16.3
2022-09-10T21:03:09.469Z,16.3
2022-09-10T21:06:09.475Z,16.3
2022-09-10T21:09:09.501Z,16.3
2022-09-10T21:12:09.506Z,16.2
2022-09-10T21:15:09.521Z,16.1
2022-09-10T21:18:09.475Z,16.1
2022-09-10T21:21:09.501Z,16
2022-09-10T21:24:09.502Z,15.9
2022-09-10T21:27:09.481Z,15.8
2022-09-10T21:30:09.618Z,15.7
2022-09-10T21:33:09.483Z,15.6
2022-09-10T21:36:09.505Z,15.6
2022-09-10T21:39:09.456Z,15.5
2022-09-10T21:42:09.458Z,15.5
2022-09-10T21:45:09.448Z,15.4
2022-09-10T21:48:09.461Z,15.4
2022-09-10T21:51:09.426Z,15.4
2022-09-10T21:54:09.533Z,15.4
2022-09-10T21:57:09.406Z,15.4
2022-09-10T22:00:09.781Z,15.3
2022-09-10T22:03:09.485Z,15.3
2022-09-10T22:06:09.466Z,15.3
2022-09-10T22:09:09.489Z,15.2
2022-09-10T22:12:09.470Z,15.2
2022-09-10T22:15:09.522Z,15.1
2022-09-10T22:18:09.494Z,15.1
2022-09-10T22:21:09.402Z,15.1
2022-09-10T22:24:09.520Z,15.1
2022-09-10T22:27:09.413Z,15.1
2022-09-10T22:30:09.506Z,15.1
2022-09-10T22:33:09.413Z,15.1
2022-09-10T22:36:09.505Z,15
2022-09-10T22:39:09.494Z,14.9
2022-09-10T22:42:09.524Z,14.9
2022-09-10T22:45:09.458Z,14.8
2022-09-10T22:48:09.472Z,14.8
2022-09-10T22:51:09.479Z,14.7
2022-09-10T22:54:09.423Z,14.7
2022-09-10T22:57:09.520Z,14.6
2022-09-10T23:00:09.491Z,14.6
2022-09-10T23:03:09.454Z,14.5
2022-09-10T23:06:09.495Z,14.5
2022-09-10T23:09:09.492Z,14.5
2022-09-10T23:12:09.518Z,14.5
2022-09-10T23:15:09.527Z,14.6
2022-09-10T23:18:09.479Z,14.6
2022-09-10T23:21:09.423Z,14.6
2022-09-10T23:24:09.649Z,14.6
2022-09-10T23:27:09.465Z,14.6
2022-09-10T23:30:09.482Z,14.6
2022-09-10T23:33:09.487Z,14.6
2022-09-10T23:36:09.484Z,14.5
2022-09-10T23:39:09.474Z,14.5
2022-09-10T23:42:09.428Z,14.4
2022-09-10T23:45:09.450Z,14.4
2022-09-10T23:48:09.617Z,14.3
2022-09-10T23:51:09.507Z,14.3
2022-09-10T23:54:09.480Z,14.3
2022-09-10T23:57:09.442Z,14.2
